createdAt,value
2023-02-16T08:22:06.865Z,100684.81
2023-02-16T08:24:34.889Z,100678.66
2023-02-16T08:27:04.609Z,100680.38
2023-02-16T08:29:33.194Z,100678.16
2023-02-16T08:32:01.484Z,100671.50
2023-02-16T08:34:30.772Z,100672.78
2023-02-16T08:36:58.247Z,100679.91
2023-02-16T08:39:31.472Z,100687.97
2023-02-16T08:42:01.262Z,100680.38
2023-02-16T08:44:29.648Z,100678.66
2023-02-16T08:47:00.516Z,100681.06
2023-02-16T08:49:28.390Z,100675.72
2023-02-16T08:51:58.507Z,100674.25
2023-02-16T08:54:30.567Z,100678.66
2023-02-16T08:57:00.162Z,100675.38
2023-02-16T08:59:28.996Z,100674.38
2023-02-16T09:01:59.342Z,100664.31
2023-02-16T09:04:29.569Z,100667.13
2023-02-16T09:06:58.613Z,100678.88
2023-02-16T09:09:27.226Z,100663.97
2023-02-16T09:11:55.440Z,100667.88
2023-02-16T09:14:23.178Z,100665.56
2023-02-16T09:18:05.238Z,100662.44
2023-02-16T09:20:32.914Z,100662.91
2023-02-16T09:23:00.445Z,100651.97
2023-02-16T09:25:28.143Z,100647.16
2023-02-16T09:27:55.733Z,100651.88
2023-02-16T09:30:24.427Z,100645.91
2023-02-16T09:32:52.392Z,100652.50
2023-02-16T09:35:21.031Z,100647.31
2023-02-16T09:37:50.099Z,100639.78
2023-02-16T09:40:18.168Z,100643.72
2023-02-16T09:43:03.969Z,100651.47
2023-02-16T09:45:37.826Z,100651.06
2023-02-16T09:48:05.457Z,100652.06
2023-02-16T09:53:31.534Z,100655.31
2023-02-16T09:56:08.371Z,100655.41
2023-02-16T09:59:15.603Z,100652.75
2023-02-16T10:02:21.248Z,100653.22
2023-02-16T10:05:08.619Z,100647.38
2023-02-16T10:07:55.259Z,100640.84
2023-02-16T10:10:29.721Z,100644.19
2023-02-16T10:13:05.401Z,100649.31
2023-02-16T10:15:38.164Z,100646.78
2023-02-16T10:23:15.226Z,100636.69
2023-02-16T10:26:53.979Z,100635.72
2023-02-16T10:43:17.858Z,100635.25
2023-02-16T10:51:34.165Z,100636.78
2023-02-16T10:54:22.443Z,100637.78
2023-02-16T10:56:53.034Z,100628.16
2023-02-16T10:59:30.643Z,100633.97
2023-02-16T11:01:59.757Z,100636.03
2023-02-16T11:04:42.918Z,100628.69
2023-02-16T11:07:18.857Z,100627.88
2023-02-16T11:09:48.532Z,100631.44
2023-02-16T11:12:27.418Z,100630.41
2023-02-16T11:15:00.458Z,100622.81
2023-02-16T11:17:28.261Z,100634.66
2023-02-16T11:20:02.320Z,100626.88
2023-02-16T11:22:39.739Z,100618.75
2023-02-16T11:25:27.259Z,100622.81
2023-02-16T11:27:58.866Z,100627.66
2023-02-16T11:30:36.712Z,100618.84
2023-02-16T11:33:18.581Z,100613.28
2023-02-16T11:35:47.182Z,100614.94
2023-02-16T11:38:33.086Z,100614.72
2023-02-16T11:41:04.505Z,100606.63
2023-02-16T11:43:37.758Z,100613.56
2023-02-16T11:46:15.016Z,100609.16
2023-02-16T11:48:43.429Z,100610.28
2023-02-16T11:51:15.289Z,100608.63
2023-02-16T11:53:44.422Z,100610.38
2023-02-16T11:56:14.666Z,100609.84
2023-02-16T11:58:45.668Z,100611.22
2023-02-16T12:01:35.766Z,100609.03
2023-02-16T12:04:03.149Z,100601.03
2023-02-16T12:06:39.788Z,100605.88
2023-02-16T12:09:19.497Z,100606.22
2023-02-16T12:12:00.151Z,100613.88
2023-02-16T12:14:50.909Z,100606.91
2023-02-16T12:18:03.516Z,100608.56
2023-02-16T12:20:59.940Z,100613.06
2023-02-16T12:23:52.486Z,100610.41
2023-02-16T12:26:37.405Z,100613.41
2023-02-16T12:29:24.451Z,100608.16
2023-02-16T12:32:11.658Z,100607.28
2023-02-16T12:34:48.767Z,100607.59
2023-02-16T12:37:34.300Z,100611.22
2023-02-16T12:40:36.878Z,100617.84
2023-02-16T12:43:25.710Z,100613.88
2023-02-16T12:45:56.145Z,100619.03
2023-02-16T12:48:29.456Z,100623.22
2023-02-16T12:51:02.883Z,100626.06
2023-02-16T12:54:00.401Z,100622.75
2023-02-16T12:56:42.197Z,100634.50
2023-02-16T12:59:36.092Z,100625.13
2023-02-16T13:02:12.111Z,100627.19
2023-02-16T13:05:09.143Z,100628.16
2023-02-16T13:07:40.554Z,100620.94
2023-02-16T13:10:22.757Z,100621.50
2023-02-16T13:12:56.297Z,100628.63
2023-02-16T13:15:34.440Z,100625.28
2023-02-16T13:18:12.641Z,100625.72
2023-02-16T13:20:45.702Z,100616.25
2023-02-16T13:23:26.715Z,100620.72
2023-02-16T13:26:18.842Z,100617.50
2023-02-16T13:29:02.668Z,100622.97
2023-02-16T13:31:48.892Z,100620.50
2023-02-16T13:34:43.094Z,100622.75
2023-02-16T13:37:41.074Z,100616.31
2023-02-16T13:40:26.731Z,100619.22
2023-02-16T13:43:16.903Z,100614.84
2023-02-16T13:45:47.574Z,100618.44
2023-02-16T13:48:24.410Z,100616.69
2023-02-16T13:51:04.421Z,100613.31
2023-02-16T13:53:49.839Z,100618.03
2023-02-16T13:56:37.138Z,100606.19
2023-02-16T13:59:19.160Z,100617.19
2023-02-16T14:01:51.454Z,100624.66
2023-02-16T14:04:22.189Z,100624.78
2023-02-16T14:06:57.050Z,100623.66
2023-02-16T14:09:36.471Z,100615.63
2023-02-16T14:12:12.148Z,100630.66
2023-02-16T14:14:42.618Z,100623.69
2023-02-16T14:17:22.682Z,100624.25
2023-02-16T14:20:25.190Z,100619.97
2023-02-16T14:22:59.919Z,100626.50
2023-02-16T14:25:29.018Z,100619.69
2023-02-16T14:27:59.788Z,100626.78
2023-02-16T14:30:29.730Z,100624.56
2023-02-16T14:33:12.915Z,100626.50
2023-02-16T14:36:04.130Z,100633.03
2023-02-16T14:38:34.428Z,100645.38
2023-02-16T14:41:06.581Z,100633.38
2023-02-16T14:43:43.728Z,100639.56
2023-02-16T14:46:42.428Z,100637.78
2023-02-16T14:49:23.972Z,100640.63
2023-02-16T14:52:20.453Z,100640.75
2023-02-16T14:55:20.339Z,100635.13
2023-02-16T14:58:27.695Z,100641.50
2023-02-16T15:01:14.127Z,100637.38
2023-02-16T15:05:10.029Z,100630.38
2023-02-16T15:08:02.939Z,100629.22
2023-02-16T15:11:14.151Z,100632.06
2023-02-16T15:14:25.833Z,100630.72
2023-02-16T15:18:29.572Z,100641.41
2023-02-16T15:26:18.318Z,100640.53
2023-02-16T15:29:22.400Z,100647.25
2023-02-16T15:36:50.100Z,100643.50
2023-02-16T15:40:06.142Z,100641.75
2023-02-16T15:42:55.084Z,100643.81
2023-02-16T15:45:33.172Z,100638.78
2023-02-16T15:48:34.754Z,100640.84
2023-02-16T15:51:20.336Z,100636.13
2023-02-16T15:53:53.882Z,100632.88
2023-02-16T15:56:38.588Z,100637.03
2023-02-16T15:59:26.672Z,100641.63
2023-02-16T16:02:17.376Z,100640.53
2023-02-16T16:04:58.815Z,100642.44
2023-02-16T16:07:35.813Z,100649.38
2023-02-16T16:10:20.914Z,100642.97
2023-02-16T16:12:50.432Z,100655.94
2023-02-16T16:15:26.424Z,100653.66
2023-02-16T16:17:55.125Z,100651.59
2023-02-16T16:20:25.991Z,100656.94
2023-02-16T16:23:21.652Z,100650.75
2023-02-16T16:25:49.293Z,100658.44
2023-02-16T16:28:26.440Z,100659.34
2023-02-16T16:31:22.633Z,100661.09
2023-02-16T16:34:01.582Z,100651.91
2023-02-16T16:36:56.068Z,100654.16
2023-02-16T16:39:32.513Z,100655.44
2023-02-16T16:42:18.337Z,100652.03
2023-02-16T16:45:02.271Z,100655.44
2023-02-16T16:47:41.204Z,100645.97
2023-02-16T16:50:13.199Z,100656.53
2023-02-16T16:52:47.253Z,100650.75
2023-02-16T16:55:23.877Z,100656.97
2023-02-16T16:58:00.862Z,100662.88
2023-02-16T17:00:34.553Z,100659.06
2023-02-16T17:03:07.357Z,100660.09
2023-02-16T17:05:38.361Z,100666.28
2023-02-16T17:08:06.610Z,100661.56
2023-02-16T17:10:37.248Z,100663.31
2023-02-16T17:13:06.275Z,100666.56
2023-02-16T17:15:54.138Z,100668.28
2023-02-16T17:18:22.827Z,100664.34
2023-02-16T17:20:51.310Z,100671.53
2023-02-16T17:23:22.690Z,100664.41
2023-02-16T17:25:51.092Z,100675.47
2023-02-16T17:28:19.938Z,100679.09
2023-02-16T17:30:47.666Z,100675.66
2023-02-16T17:33:16.460Z,100685.78
2023-02-16T17:35:44.429Z,100684.25
2023-02-16T17:38:20.991Z,100680.94
2023-02-16T17:40:50.781Z,100688.03
2023-02-16T17:43:22.399Z,100689.31
2023-02-16T17:45:51.174Z,100688.34
2023-02-16T17:48:20.836Z,100686.50
2023-02-16T17:50:49.462Z,100692.72
2023-02-16T17:53:19.757Z,100685.97
2023-02-16T17:55:49.663Z,100696.97
2023-02-16T17:58:18.330Z,100701.53
2023-02-16T18:00:46.936Z,100692.59
2023-02-16T18:03:14.868Z,100695.69
2023-02-16T18:05:42.563Z,100694.28
2023-02-16T18:08:11.514Z,100695.66
2023-02-16T18:10:50.133Z,100694.25
2023-02-16T18:13:18.370Z,100708.44
2023-02-16T18:15:49.000Z,100701.06
2023-02-16T18:18:18.099Z,100706.41
2023-02-16T18:20:47.273Z,100703.50
2023-02-16T18:23:15.191Z,100703.19
2023-02-16T18:25:44.249Z,100717.09
2023-02-16T18:28:20.136Z,100718.88
2023-02-16T18:30:49.376Z,100719.63
2023-02-16T18:33:21.909Z,100707.13
2023-02-16T18:35:52.684Z,100721.72
2023-02-16T18:38:22.098Z,100716.16
2023-02-16T18:40:52.728Z,100707.09
2023-02-16T18:43:21.553Z,100704.97
2023-02-16T18:45:49.723Z,100700.28
2023-02-16T18:48:17.695Z,100703.84
2023-02-16T18:50:46.123Z,100699.19
2023-02-16T18:53:14.103Z,100697.16
2023-02-16T18:55:41.625Z,100691.97
2023-02-16T18:58:13.242Z,100710.00
2023-02-16T19:00:41.566Z,100700.16
2023-02-16T19:03:12.092Z,100697.72
2023-02-16T19:05:40.082Z,100705.66
2023-02-16T19:08:07.813Z,100703.38
2023-02-16T19:10:35.549Z,100706.19
2023-02-16T19:13:03.560Z,100699.22
2023-02-16T19:15:33.423Z,100701.91
2023-02-16T19:18:01.610Z,100692.38
2023-02-16T19:20:29.838Z,100697.09
2023-02-16T19:22:57.459Z,100689.19
2023-02-16T19:25:26.966Z,100691.47
2023-02-16T19:27:54.849Z,100698.50
2023-02-16T19:30:25.106Z,100684.53
2023-02-16T19:32:53.013Z,100686.31
2023-02-16T19:35:20.708Z,100677.50
2023-02-16T19:37:48.243Z,100676.25
2023-02-16T19:40:16.570Z,100679.47
2023-02-16T19:42:44.618Z,100681.84
2023-02-16T19:45:12.135Z,100685.13
2023-02-16T19:47:39.595Z,100672.97
2023-02-16T19:50:07.577Z,100682.84
2023-02-16T19:52:35.089Z,100676.56
2023-02-16T19:55:02.554Z,100672.97
2023-02-16T19:57:30.643Z,100673.31
2023-02-16T19:59:58.163Z,100669.03
2023-02-16T20:02:25.804Z,100669.97
2023-02-16T20:04:53.603Z,100668.31
2023-02-16T20:07:21.221Z,100665.38
2023-02-16T20:09:48.823Z,100677.31
2023-02-16T20:12:16.503Z,100672.25
2023-02-16T20:14:44.242Z,100675.97
2023-02-16T20:17:11.655Z,100670.56
2023-02-16T20:19:39.144Z,100665.88
2023-02-16T20:22:06.661Z,100678.91
2023-02-16T20:24:34.132Z,100679.06
2023-02-16T20:27:04.422Z,100684.19
2023-02-16T20:29:32.616Z,100679.09
2023-02-16T20:32:00.722Z,100660.78
2023-02-16T20:34:28.427Z,100664.84
2023-02-16T20:36:56.041Z,100662.66
2023-02-16T20:39:24.020Z,100666.41
2023-02-16T20:41:51.630Z,100653.41
2023-02-16T20:44:19.313Z,100665.44
2023-02-16T20:46:46.930Z,100665.31
2023-02-16T20:49:16.455Z,100659.75
2023-02-16T20:51:45.234Z,100660.06
2023-02-16T20:54:13.764Z,100644.84
2023-02-16T20:56:41.764Z,100660.41
2023-02-16T20:59:11.645Z,100656.56
2023-02-16T21:01:43.751Z,100666.03
2023-02-16T21:04:11.222Z,100650.97
2023-02-16T21:06:39.136Z,100665.50
2023-02-16T21:09:09.388Z,100662.25
2023-02-16T21:11:38.800Z,100660.78
2023-02-16T21:14:08.036Z,100656.09
2023-02-16T21:16:38.306Z,100653.88
2023-02-16T21:19:17.301Z,100655.09
2023-02-16T21:21:50.533Z,100657.34
2023-02-16T21:24:18.125Z,100653.72
2023-02-16T21:26:45.604Z,100643.50
2023-02-16T21:29:13.330Z,100652.81
2023-02-16T21:31:40.962Z,100648.53
2023-02-16T21:34:08.541Z,100645.13
2023-02-16T21:36:37.784Z,100648.78
2023-02-16T21:39:05.388Z,100642.94
2023-02-16T21:41:33.121Z,100650.25
2023-02-16T21:44:07.061Z,100650.41
2023-02-16T21:46:34.621Z,100650.56
2023-02-16T21:49:02.494Z,100645.78
2023-02-16T21:51:34.633Z,100649.00
2023-02-16T21:54:02.497Z,100648.13
2023-02-16T21:56:30.313Z,100643.41
2023-02-16T21:58:58.531Z,100639.91
2023-02-16T22:01:31.772Z,100646.72
2023-02-16T22:04:01.398Z,100634.00
2023-02-16T22:06:38.579Z,100640.25
2023-02-16T22:09:09.576Z,100633.69
2023-02-16T22:11:38.369Z,100643.75
2023-02-16T22:14:05.967Z,100645.69
2023-02-16T22:16:35.868Z,100653.78
2023-02-16T22:19:12.941Z,100651.19
2023-02-16T22:21:42.826Z,100650.84
2023-02-16T22:24:14.864Z,100648.34
2023-02-16T22:26:43.115Z,100642.84
2023-02-16T22:29:12.076Z,100643.66
2023-02-16T22:31:44.362Z,100650.47
2023-02-16T22:34:15.614Z,100646.31
2023-02-16T22:36:45.954Z,100650.59
2023-02-16T22:39:15.870Z,100651.84
2023-02-16T22:41:44.674Z,100645.19
2023-02-16T22:44:12.591Z,100644.28
2023-02-16T22:46:40.092Z,100633.50
2023-02-16T22:49:07.646Z,100634.69
2023-02-16T22:51:35.299Z,100636.41
2023-02-16T22:54:03.257Z,100635.13
2023-02-16T22:56:34.424Z,100640.88
2023-02-16T22:59:02.063Z,100627.69
2023-02-16T23:01:31.396Z,100641.78
2023-02-16T23:04:00.829Z,100633.16
2023-02-16T23:06:31.125Z,100639.06
2023-02-16T23:09:01.905Z,100630.50
2023-02-16T23:11:30.141Z,100628.72
2023-02-16T23:13:57.664Z,100632.38
2023-02-16T23:16:26.924Z,100633.25
2023-02-16T23:18:56.706Z,100629.13
2023-02-16T23:21:30.697Z,100623.94
2023-02-16T23:23:59.250Z,100631.47
2023-02-16T23:26:29.991Z,100632.88
2023-02-16T23:29:02.204Z,100624.09
2023-02-16T23:31:35.042Z,100626.88
2023-02-16T23:34:04.372Z,100634.44
2023-02-16T23:36:33.200Z,100633.03
2023-02-16T23:39:07.249Z,100627.63
2023-02-16T23:41:35.609Z,100624.22
2023-02-16T23:44:03.801Z,100630.75
2023-02-16T23:46:31.850Z,100620.88
2023-02-16T23:48:59.588Z,100624.59
2023-02-16T23:51:27.604Z,100618.38
2023-02-16T23:53:55.532Z,100624.88
2023-02-16T23:56:25.776Z,100629.66
2023-02-16T23:58:57.939Z,100625.69
